Time;durP1;ratioP1;P1;durP2;ratioP2;P2;SDS_P1;SDS_P2;PMS_P1;PMS_P2;Temp;Humidity;BMP_temperature;BMP_pressure;BME280_temperature;BME280_humidity;BME280_pressure;Samples;Min_cycle;Max_cycle;Signal;HPM_P1;HPM_P2
2022/01/26 00:07:52;;;;;;;16.53;10.90;;;4.90;38.80;;;;;;6259433;28;20755;-56
2022/01/26 00:10:55;;;;;;;14.60;11.40;;;5.10;39.20;;;;;;6269447;28;20302;-59
2022/01/26 00:14:01;;;;;;;17.40;11.30;;;4.90;39.00;;;;;;6283311;28;20251;-56
2022/01/26 00:17:04;;;;;;;14.60;11.50;;;4.90;39.10;;;;;;6260926;28;20426;-56
2022/01/26 00:20:15;;;;;;;15.93;11.23;;;4.90;39.30;;;;;;6261046;28;20868;-57
2022/01/26 00:23:36;;;;;;;17.13;12.77;;;5.10;39.00;;;;;;6260028;28;20240;-56
2022/01/26 00:27:03;;;;;;;18.40;12.87;;;5.00;39.00;;;;;;6258858;28;20277;-56
2022/01/26 00:40:14;;;;;;;17.43;13.40;;;4.80;38.20;;;;;;6274993;28;20237;-58
2022/01/26 00:43:21;;;;;;;17.43;12.67;;;5.00;38.70;;;;;;6258977;28;20230;-57
2022/01/26 00:46:26;;;;;;;16.10;11.90;;;5.00;38.50;;;;;;6259255;28;20233;-55
2022/01/26 00:49:29;;;;;;;17.27;12.77;;;4.80;38.10;;;;;;6258454;28;20241;-56
2022/01/26 00:52:39;;;;;;;18.60;12.50;;;5.10;38.50;;;;;;6259847;28;20242;-56
2022/01/26 00:55:42;;;;;;;19.53;13.23;;;5.10;38.50;;;;;;6256914;28;20230;-57
2022/01/26 00:58:46;;;;;;;18.77;12.53;;;4.80;38.00;;;;;;6262517;28;20321;-56
2022/01/26 01:01:50;;;;;;;19.40;13.97;;;4.80;37.70;;;;;;6276587;28;20614;-58
2022/01/26 01:04:55;;;;;;;17.60;13.60;;;4.50;37.10;;;;;;6286883;28;20229;-55
2022/01/26 01:08:03;;;;;;;17.40;13.03;;;4.90;38.10;;;;;;6282941;28;20324;-55
2022/01/26 01:11:06;;;;;;;19.60;13.30;;;4.70;38.10;;;;;;6286048;28;20259;-57
2022/01/26 01:14:10;;;;;;;22.97;14.87;;;4.80;37.40;;;;;;6288010;28;20471;-57
2022/01/26 01:17:22;;;;;;;18.53;13.23;;;5.00;37.20;;;;;;6286662;28;20233;-57
2022/01/26 01:20:43;;;;;;;21.37;14.50;;;5.00;37.50;;;;;;6286606;28;20722;-58
2022/01/26 01:27:40;;;;;;;20.17;14.07;;;5.00;37.50;;;;;;6229861;28;20704;-57
2022/01/26 01:30:46;;;;;;;21.93;13.70;;;4.70;37.90;;;;;;6262418;28;20764;-56
2022/01/26 01:33:51;;;;;;;19.53;13.27;;;4.90;38.70;;;;;;6279576;28;20324;-56
2022/01/26 01:37:00;;;;;;;19.77;13.43;;;4.80;38.80;;;;;;6274892;28;20233;-56
2022/01/26 01:40:04;;;;;;;18.93;12.50;;;5.00;39.00;;;;;;6262542;28;20234;-56
2022/01/26 01:43:08;;;;;;;18.47;12.33;;;4.90;39.60;;;;;;6262186;28;20733;-56
2022/01/26 01:46:11;;;;;;;15.27;12.00;;;4.90;39.40;;;;;;6262170;28;20256;-56
2022/01/26 01:49:15;;;;;;;19.07;12.97;;;4.80;38.90;;;;;;6261553;28;20260;-57
2022/01/26 01:52:18;;;;;;;16.73;11.70;;;4.80;39.10;;;;;;6262928;28;20238;-56
2022/01/26 01:55:25;;;;;;;17.97;12.93;;;4.90;39.00;;;;;;6263673;28;20226;-56
2022/01/26 01:58:29;;;;;;;18.23;12.77;;;4.70;38.90;;;;;;6262203;28;20363;-57
2022/01/26 02:01:32;;;;;;;17.20;11.43;;;5.00;39.40;;;;;;6262234;28;20245;-57
2022/01/26 02:04:36;;;;;;;19.23;12.33;;;4.50;39.10;;;;;;6279387;28;20725;-57
2022/01/26 02:07:39;;;;;;;12.97;10.80;;;4.80;39.10;;;;;;6286890;28;20318;-55
2022/01/26 02:10:42;;;;;;;14.67;11.23;;;4.80;38.90;;;;;;6283862;28;20378;-55
2022/01/26 02:13:53;;;;;;;16.63;11.27;;;4.80;39.00;;;;;;6272437;28;20296;-56
2022/01/26 02:17:07;;;;;;;16.60;11.00;;;4.90;39.00;;;;;;6257213;28;20389;-56
2022/01/26 02:20:36;;;;;;;15.53;10.80;;;4.70;39.00;;;;;;6262269;28;20268;-54
2022/01/26 02:51:09;;;;;;;17.63;12.03;;;4.60;38.70;;;;;;6284184;28;20229;-57
2022/01/26 02:54:38;;;;;;;17.77;12.33;;;4.40;38.20;;;;;;6277067;28;20230;-55
2022/01/26 02:58:01;;;;;;;18.63;12.90;;;4.60;38.50;;;;;;6258716;28;20317;-56
2022/01/26 03:01:24;;;;;;;17.60;12.17;;;4.70;39.20;;;;;;6259697;28;20858;-56
2022/01/26 03:04:34;;;;;;;22.53;12.80;;;4.50;38.50;;;;;;6273556;28;20230;-56
2022/01/26 03:07:42;;;;;;;21.10;13.57;;;4.50;38.50;;;;;;6283498;28;20310;-56
2022/01/26 03:10:51;;;;;;;19.20;13.03;;;4.70;39.20;;;;;;6275021;28;20239;-56
2022/01/26 03:14:03;;;;;;;16.23;12.23;;;4.80;39.30;;;;;;6265032;28;20238;-56
2022/01/26 03:17:14;;;;;;;19.63;12.47;;;4.60;38.70;;;;;;6259517;28;20240;-56
2022/01/26 03:20:17;;;;;;;19.70;12.63;;;4.90;38.00;;;;;;6260504;28;20636;-55
2022/01/26 03:30:08;;;;;;;18.83;13.13;;;4.70;37.40;;;;;;6275462;28;20480;-56
2022/01/26 03:33:24;;;;;;;24.30;14.57;;;4.50;36.40;;;;;;6269716;28;20283;-56
2022/01/26 03:36:30;;;;;;;19.77;12.67;;;4.70;37.00;;;;;;6286181;28;20605;-56
2022/01/26 03:39:40;;;;;;;21.93;13.90;;;4.70;36.60;;;;;;6284469;28;20428;-58
2022/01/26 03:42:44;;;;;;;25.60;14.60;;;4.60;35.70;;;;;;6278678;28;20260;-56
2022/01/26 03:45:47;;;;;;;19.83;13.30;;;4.30;35.60;;;;;;6285409;28;20256;-58
2022/01/26 03:48:50;;;;;;;21.03;14.10;;;4.70;36.00;;;;;;6283222;28;20339;-56
2022/01/26 03:51:53;;;;;;;23.37;15.53;;;4.80;36.30;;;;;;6283006;28;20729;-57
2022/01/26 03:54:55;;;;;;;23.23;14.77;;;4.50;35.90;;;;;;6283339;28;20752;-55
2022/01/26 03:57:59;;;;;;;19.13;13.47;;;4.80;35.90;;;;;;6273773;28;20229;-56
2022/01/26 04:01:02;;;;;;;23.53;14.63;;;4.60;36.20;;;;;;6258399;28;20637;-56
2022/01/26 04:04:06;;;;;;;27.00;15.37;;;4.60;36.30;;;;;;6273058;28;20434;-55
2022/01/26 04:07:09;;;;;;;20.77;13.97;;;4.40;36.10;;;;;;6281500;28;20839;-56
2022/01/26 04:10:20;;;;;;;23.57;14.57;;;4.50;36.20;;;;;;6282974;28;20236;-55
2022/01/26 04:13:25;;;;;;;22.80;14.33;;;4.70;35.90;;;;;;6269911;28;20388;-56
2022/01/26 04:16:28;;;;;;;21.87;13.93;;;4.40;35.50;;;;;;6258188;28;20417;-57
2022/01/26 04:19:34;;;;;;;22.23;14.33;;;4.60;35.70;;;;;;6258214;28;20237;-56
2022/01/26 04:22:49;;;;;;;22.13;13.87;;;4.30;35.20;;;;;;6257273;28;20766;-56
2022/01/26 04:25:53;;;;;;;24.50;14.77;;;4.70;36.30;;;;;;6258319;28;20284;-56
2022/01/26 04:29:01;;;;;;;21.33;14.70;;;4.60;35.50;;;;;;6260341;28;20396;-56
2022/01/26 04:32:06;;;;;;;21.77;14.20;;;4.60;36.20;;;;;;6258537;28;20239;-56
2022/01/26 04:35:10;;;;;;;21.07;13.90;;;4.50;36.10;;;;;;6282897;28;21085;-57
2022/01/26 04:38:19;;;;;;;22.17;15.00;;;4.50;36.00;;;;;;6279511;28;20232;-56
2022/01/26 04:41:31;;;;;;;25.50;14.90;;;4.40;36.20;;;;;;6281888;28;22096;-56
2022/01/26 04:44:41;;;;;;;24.33;15.10;;;4.40;35.20;;;;;;6284433;28;20321;-59
2022/01/26 04:47:43;;;;;;;21.60;13.90;;;4.60;34.40;;;;;;6275586;28;20254;-56
2022/01/26 04:50:46;;;;;;;20.70;14.23;;;4.40;34.20;;;;;;6277900;28;20252;-56
2022/01/26 04:53:49;;;;;;;22.10;15.03;;;4.30;34.20;;;;;;6287434;28;20237;-55
2022/01/26 04:56:52;;;;;;;22.80;14.53;;;4.40;34.90;;;;;;6286317;28;20755;-56
2022/01/26 04:59:56;;;;;;;21.37;14.30;;;4.30;34.70;;;;;;6286825;28;20237;-57
2022/01/26 05:02:58;;;;;;;24.60;14.57;;;4.40;35.60;;;;;;6277384;28;20463;-57
2022/01/26 05:06:01;;;;;;;22.63;14.57;;;4.40;34.50;;;;;;6282997;28;20710;-56
2022/01/26 05:09:04;;;;;;;25.67;14.40;;;4.40;34.90;;;;;;6280849;28;20763;-56
2022/01/26 05:12:09;;;;;;;24.07;14.67;;;4.40;35.00;;;;;;6280800;28;20268;-58
2022/01/26 05:15:14;;;;;;;23.07;14.33;;;4.40;35.50;;;;;;6279092;28;20464;-58
2022/01/26 05:18:16;;;;;;;19.73;13.67;;;4.20;35.10;;;;;;6281389;28;20387;-56
2022/01/26 05:21:19;;;;;;;21.97;13.33;;;4.20;35.40;;;;;;6285172;28;20233;-56
2022/01/26 05:24:22;;;;;;;20.83;13.37;;;4.10;35.50;;;;;;6283609;28;20230;-56
2022/01/26 05:27:24;;;;;;;19.33;12.50;;;4.40;35.70;;;;;;6284734;28;20320;-58
2022/01/26 05:30:29;;;;;;;17.60;11.63;;;4.20;35.10;;;;;;6287061;28;20229;-57
2022/01/26 05:33:31;;;;;;;15.17;11.50;;;4.30;35.00;;;;;;6283515;28;20320;-57
2022/01/26 05:36:39;;;;;;;18.93;12.33;;;4.30;34.70;;;;;;6276081;28;20226;-57
2022/01/26 05:39:42;;;;;;;15.77;11.03;;;4.10;33.50;;;;;;6283877;28;20770;-57
2022/01/26 05:42:45;;;;;;;13.07;10.33;;;4.00;33.30;;;;;;6276649;28;20562;-56
2022/01/26 05:45:53;;;;;;;12.67;10.63;;;4.10;34.10;;;;;;6282099;28;20261;-56
2022/01/26 05:48:56;;;;;;;14.17;10.03;;;4.00;32.90;;;;;;6282945;28;20268;-55
2022/01/26 05:51:59;;;;;;;12.53;10.57;;;4.10;33.70;;;;;;6270910;28;20247;-57
2022/01/26 05:55:02;;;;;;;13.83;11.00;;;3.80;34.00;;;;;;6279699;28;20829;-56
2022/01/26 05:58:05;;;;;;;14.13;11.30;;;3.70;33.40;;;;;;6282861;28;20237;-56
2022/01/26 06:01:11;;;;;;;13.77;10.30;;;4.10;33.00;;;;;;6281370;28;20241;-56
2022/01/26 06:04:14;;;;;;;15.73;10.93;;;3.80;32.90;;;;;;6283175;28;20229;-58
2022/01/26 06:07:17;;;;;;;14.20;10.73;;;4.00;33.30;;;;;;6281210;28;20269;-56
2022/01/26 06:10:20;;;;;;;16.67;11.13;;;4.10;33.40;;;;;;6283540;28;20233;-56
2022/01/26 06:13:23;;;;;;;17.17;11.03;;;3.90;33.90;;;;;;6271113;28;20420;-57
2022/01/26 06:16:27;;;;;;;17.77;12.43;;;3.80;34.30;;;;;;6281085;28;20415;-54
2022/01/26 06:19:29;;;;;;;18.83;12.00;;;3.70;34.10;;;;;;6284311;28;20226;-57
2022/01/26 06:22:33;;;;;;;19.53;11.13;;;3.80;34.50;;;;;;6278500;28;20786;-58
2022/01/26 06:25:36;;;;;;;17.97;12.23;;;4.00;33.70;;;;;;6284894;28;20260;-56
2022/01/26 06:28:38;;;;;;;16.37;11.50;;;3.90;33.80;;;;;;6277283;28;20597;-56
2022/01/26 06:31:43;;;;;;;20.73;12.17;;;3.80;34.30;;;;;;6282787;28;20259;-56
2022/01/26 06:34:46;;;;;;;19.70;12.97;;;3.80;34.10;;;;;;6281773;28;20488;-57
2022/01/26 06:37:49;;;;;;;25.90;14.40;;;3.70;33.90;;;;;;6273556;28;20241;-57
2022/01/26 06:40:51;;;;;;;21.77;13.63;;;3.60;33.20;;;;;;6279778;28;20286;-56
2022/01/26 06:44:01;;;;;;;22.93;13.60;;;4.00;32.30;;;;;;6272214;28;20559;-57
2022/01/26 06:47:20;;;;;;;25.73;14.20;;;3.30;31.60;;;;;;6284064;28;20230;-57
2022/01/26 06:50:23;;;;;;;27.30;14.77;;;3.90;33.00;;;;;;6279648;28;20778;-58
2022/01/26 06:53:26;;;;;;;30.77;14.97;;;3.70;33.20;;;;;;6281851;28;20241;-58
2022/01/26 06:56:29;;;;;;;29.13;15.30;;;3.60;32.10;;;;;;6279074;28;20302;-56
2022/01/26 06:59:32;;;;;;;25.87;14.93;;;3.80;32.80;;;;;;6282324;28;20244;-56
2022/01/26 07:02:36;;;;;;;26.80;15.37;;;3.60;32.80;;;;;;6281920;28;20234;-56
2022/01/26 07:05:40;;;;;;;27.23;15.37;;;3.80;33.00;;;;;;6277117;28;20705;-56
2022/01/26 07:08:44;;;;;;;25.53;14.57;;;3.70;32.80;;;;;;6275989;28;20329;-58
2022/01/26 07:11:47;;;;;;;24.37;14.47;;;3.80;32.40;;;;;;6277392;28;20784;-58
2022/01/26 07:21:40;;;;;;;28.00;14.97;;;3.70;30.20;;;;;;6226467;28;20775;-57
2022/01/26 07:24:43;;;;;;;24.00;13.57;;;3.90;29.70;;;;;;6284198;28;20225;-54
2022/01/26 07:27:46;;;;;;;25.57;14.63;;;3.70;30.00;;;;;;6283043;28;20391;-56
2022/01/26 07:30:50;;;;;;;30.17;15.70;;;3.70;30.50;;;;;;6283698;28;20665;-56
2022/01/26 07:33:56;;;;;;;29.17;15.03;;;3.70;29.60;;;;;;6276579;28;20366;-58
2022/01/26 07:37:02;;;;;;;32.77;15.73;;;3.80;31.10;;;;;;6276085;28;20237;-57
2022/01/26 07:40:07;;;;;;;29.57;15.00;;;3.80;31.80;;;;;;6276451;28;20597;-56
2022/01/26 07:43:10;;;;;;;26.37;15.03;;;3.60;29.60;;;;;;6279557;28;20391;-58
2022/01/26 07:46:14;;;;;;;30.17;15.20;;;3.80;29.70;;;;;;6278701;28;20372;-56
2022/01/26 07:49:18;;;;;;;28.77;14.10;;;3.50;30.30;;;;;;6276599;28;20233;-56
2022/01/26 07:52:21;;;;;;;24.23;15.07;;;3.80;29.60;;;;;;6280125;28;20511;-57
2022/01/26 07:55:24;;;;;;;27.97;15.97;;;3.70;29.70;;;;;;6281781;28;20233;-56
2022/01/26 07:58:27;;;;;;;32.97;15.67;;;3.80;29.80;;;;;;6280962;28;20275;-56
2022/01/26 08:01:30;;;;;;;27.20;16.63;;;4.00;29.40;;;;;;6282429;28;20529;-56
2022/01/26 08:04:35;;;;;;;28.37;15.40;;;3.90;30.70;;;;;;6284023;28;20709;-56
2022/01/26 08:07:38;;;;;;;28.63;15.67;;;4.00;30.50;;;;;;6287693;28;20236;-57
2022/01/26 08:10:41;;;;;;;27.03;15.73;;;3.90;29.90;;;;;;6274644;28;20646;-56
2022/01/26 08:13:43;;;;;;;24.63;14.87;;;3.80;28.10;;;;;;6283966;28;20379;-56
2022/01/26 08:16:46;;;;;;;28.00;15.10;;;3.90;28.50;;;;;;6285465;28;20233;-56
2022/01/26 08:19:54;;;;;;;26.57;15.17;;;4.00;29.30;;;;;;6283641;28;20240;-57
2022/01/26 08:22:57;;;;;;;32.37;15.60;;;3.80;29.00;;;;;;6284148;28;20771;-58
2022/01/26 08:26:00;;;;;;;25.87;14.93;;;4.00;28.90;;;;;;6284148;28;20367;-56
2022/01/26 08:29:06;;;;;;;30.27;15.77;;;3.90;29.70;;;;;;6287727;28;20646;-56
2022/01/26 08:32:09;;;;;;;25.37;15.30;;;3.60;29.50;;;;;;6286232;28;20270;-56
2022/01/26 08:35:13;;;;;;;31.50;15.60;;;3.70;29.60;;;;;;6279175;28;20303;-56
2022/01/26 08:38:16;;;;;;;32.37;15.57;;;3.70;29.70;;;;;;6285954;28;20234;-55
2022/01/26 08:41:19;;;;;;;29.03;16.13;;;3.60;29.50;;;;;;6283350;28;20237;-56
2022/01/26 08:44:23;;;;;;;26.27;14.53;;;3.70;29.90;;;;;;6278776;28;20316;-55
2022/01/26 08:47:26;;;;;;;24.70;14.50;;;3.70;29.90;;;;;;6284717;28;20233;-56
2022/01/26 08:50:30;;;;;;;28.90;15.53;;;4.00;29.80;;;;;;6288194;28;20247;-57
2022/01/26 08:53:33;;;;;;;27.17;14.27;;;3.80;30.50;;;;;;6287342;28;20320;-56
2022/01/26 08:56:35;;;;;;;23.43;14.23;;;3.70;31.00;;;;;;6281759;28;20744;-56
2022/01/26 08:59:38;;;;;;;22.87;14.33;;;3.80;30.20;;;;;;6282227;28;20238;-58
2022/01/26 09:02:41;;;;;;;23.13;14.83;;;3.80;29.60;;;;;;6274578;28;20249;-56
2022/01/26 09:05:46;;;;;;;24.13;14.77;;;4.10;29.80;;;;;;6288121;28;20310;-56
2022/01/26 09:08:56;;;;;;;22.97;14.20;;;3.80;28.10;;;;;;6284230;28;20312;-56
2022/01/26 09:12:06;;;;;;;21.03;13.30;;;3.90;29.10;;;;;;6274439;28;20266;-56
2022/01/26 09:15:10;;;;;;;23.20;14.23;;;3.90;29.70;;;;;;6285076;28;20826;-56
2022/01/26 09:18:18;;;;;;;21.53;13.53;;;4.10;29.20;;;;;;6283023;28;20317;-57
2022/01/26 09:21:24;;;;;;;20.97;13.10;;;4.00;28.90;;;;;;6280614;28;20441;-56
2022/01/26 09:24:28;;;;;;;20.03;12.67;;;3.80;28.90;;;;;;6287957;28;20244;-56
2022/01/26 09:27:30;;;;;;;19.07;12.37;;;4.10;28.50;;;;;;6280880;28;20249;-56
2022/01/26 09:30:33;;;;;;;18.03;12.57;;;3.90;29.20;;;;;;6279029;28;20316;-55
2022/01/26 09:33:36;;;;;;;17.20;12.13;;;4.10;26.60;;;;;;6279343;28;20240;-56
2022/01/26 09:36:40;;;;;;;19.03;12.70;;;4.10;26.40;;;;;;6282503;28;20839;-56
2022/01/26 09:39:45;;;;;;;15.90;11.90;;;3.60;26.70;;;;;;6286666;28;20233;-56
2022/01/26 09:42:49;;;;;;;19.87;13.00;;;4.30;27.80;;;;;;6273899;28;20372;-55
2022/01/26 09:45:52;;;;;;;16.57;12.03;;;4.00;28.80;;;;;;6284048;28;20317;-55
2022/01/26 09:48:55;;;;;;;17.97;12.10;;;4.00;28.80;;;;;;6285971;28;20233;-55
2022/01/26 09:52:01;;;;;;;19.67;12.87;;;3.90;29.00;;;;;;6284608;28;20237;-56
2022/01/26 09:55:07;;;;;;;17.10;12.03;;;4.20;28.90;;;;;;6275465;28;20725;-56
2022/01/26 09:58:11;;;;;;;17.83;11.13;;;4.10;28.20;;;;;;6285859;28;20340;-56
2022/01/26 10:01:13;;;;;;;17.67;12.33;;;4.20;27.70;;;;;;6286224;28;20255;-56
2022/01/26 10:04:22;;;;;;;17.50;11.77;;;4.00;28.10;;;;;;6277097;28;20236;-56
2022/01/26 10:07:31;;;;;;;15.03;11.03;;;3.90;27.80;;;;;;6282684;28;20237;-55
2022/01/26 10:17:28;;;;;;;16.43;11.73;;;4.30;28.30;;;;;;6283739;28;20233;-56
2022/01/26 10:20:43;;;;;;;19.20;12.93;;;4.40;28.70;;;;;;6283787;28;20653;-56
2022/01/26 10:23:47;;;;;;;15.60;12.13;;;4.00;29.80;;;;;;6277517;28;20247;-56
2022/01/26 10:26:50;;;;;;;18.33;11.47;;;4.10;30.10;;;;;;6284427;28;20836;-56
2022/01/26 10:29:53;;;;;;;17.33;11.23;;;3.90;29.00;;;;;;6280448;28;20762;-56
2022/01/26 10:32:56;;;;;;;16.13;11.57;;;4.00;29.50;;;;;;6283487;28;20233;-55
2022/01/26 10:36:02;;;;;;;15.07;10.63;;;4.10;29.20;;;;;;6285224;28;20321;-55
2022/01/26 10:39:08;;;;;;;13.47;10.40;;;4.30;27.30;;;;;;6279308;28;20367;-57
2022/01/26 10:42:18;;;;;;;15.47;10.77;;;4.30;25.90;;;;;;6284912;28;20257;-54
2022/01/26 10:45:33;;;;;;;14.40;10.90;;;4.60;25.20;;;;;;6283177;28;20233;-57
2022/01/26 10:48:42;;;;;;;13.53;10.27;;;4.30;22.80;;;;;;6283974;28;20308;-55
2022/01/26 10:51:55;;;;;;;11.57;9.77;;;4.30;22.40;;;;;;6282102;28;20244;-57
2022/01/26 10:54:59;;;;;;;11.03;9.60;;;4.20;20.20;;;;;;6285429;28;20471;-57
2022/01/26 10:58:02;;;;;;;10.83;9.37;;;4.30;22.50;;;;;;6283371;28;20329;-57
2022/01/26 11:01:05;;;;;;;10.53;9.40;;;4.50;19.90;;;;;;6281504;28;20287;-57
2022/01/26 11:04:09;;;;;;;10.87;8.87;;;4.40;20.30;;;;;;6284098;28;20269;-56
2022/01/26 11:07:14;;;;;;;12.93;9.33;;;4.60;20.70;;;;;;6272936;28;20456;-55
2022/01/26 11:10:18;;;;;;;12.43;9.57;;;4.50;21.70;;;;;;6281857;28;20241;-56
2022/01/26 11:13:27;;;;;;;9.97;8.70;;;4.40;18.70;;;;;;6272399;28;21056;-53
2022/01/26 11:16:30;;;;;;;9.60;8.60;;;4.60;18.50;;;;;;6283850;28;20318;-55
2022/01/26 11:19:40;;;;;;;10.10;8.87;;;4.70;18.60;;;;;;6282804;28;20252;-58
2022/01/26 11:22:49;;;;;;;9.40;8.50;;;4.40;18.10;;;;;;6282536;28;20390;-56
2022/01/26 11:25:53;;;;;;;8.53;7.83;;;4.40;18.50;;;;;;6271464;28;20325;-56
2022/01/26 11:28:56;;;;;;;8.40;7.60;;;4.80;15.10;;;;;;6283673;28;20296;-56
2022/01/26 11:32:07;;;;;;;7.73;7.07;;;4.60;13.10;;;;;;6278644;28;20634;-55
2022/01/26 11:35:10;;;;;;;7.93;7.20;;;4.50;11.60;;;;;;6280896;28;20284;-56
2022/01/26 11:38:40;;;;;;;7.00;6.40;;;4.50;12.70;;;;;;6279767;28;20229;-56
2022/01/26 11:42:24;;;;;;;7.67;6.97;;;4.60;14.50;;;;;;6282548;28;20712;-55
2022/01/26 11:45:34;;;;;;;10.70;8.13;;;4.10;16.70;;;;;;6280349;28;20852;-56
2022/01/26 11:48:39;;;;;;;8.30;7.53;;;4.30;19.40;;;;;;6283570;28;20249;-56
2022/01/26 11:51:43;;;;;;;11.97;8.77;;;4.30;19.70;;;;;;6277262;28;20731;-57
2022/01/26 11:54:51;;;;;;;9.43;8.43;;;4.10;22.10;;;;;;6285110;28;20237;-56
2022/01/26 11:58:07;;;;;;;13.17;9.63;;;3.90;23.20;;;;;;6279815;28;20729;-55
2022/01/26 12:01:16;;;;;;;9.67;8.77;;;3.80;24.90;;;;;;6281193;28;20757;-57
2022/01/26 12:04:19;;;;;;;10.77;9.10;;;4.10;25.90;;;;;;6277772;28;20237;-56
2022/01/26 12:07:23;;;;;;;11.90;9.23;;;3.90;25.70;;;;;;6275345;28;20239;-56
2022/01/26 12:10:29;;;;;;;11.90;9.40;;;4.00;26.40;;;;;;6280320;28;20368;-56
2022/01/26 12:13:36;;;;;;;12.93;9.53;;;3.70;24.80;;;;;;6277347;28;20324;-56
2022/01/26 12:16:43;;;;;;;12.70;10.03;;;4.00;27.00;;;;;;6284202;28;20515;-56
2022/01/26 12:20:03;;;;;;;11.50;10.00;;;3.60;26.70;;;;;;6279265;28;20708;-56
2022/01/26 12:37:06;;;;;;;13.17;9.63;;;3.80;25.60;;;;;;6253434;28;20313;-55
2022/01/26 12:43:36;;;;;;;11.60;8.90;;;3.60;23.70;;;;;;6282461;28;20229;-56
2022/01/26 12:46:41;;;;;;;10.43;9.00;;;3.80;22.00;;;;;;6279503;28;20951;-56
2022/01/26 12:49:44;;;;;;;10.37;7.93;;;3.80;22.00;;;;;;6284018;28;20303;-57
2022/01/26 12:52:47;;;;;;;9.10;8.20;;;3.60;22.00;;;;;;6286854;28;20237;-55
2022/01/26 12:55:55;;;;;;;9.33;8.40;;;3.90;20.50;;;;;;6282835;28;20246;-56
2022/01/26 12:59:02;;;;;;;10.93;9.03;;;3.90;21.80;;;;;;6281022;28;20359;-56
2022/01/26 13:02:07;;;;;;;9.73;8.10;;;3.60;22.60;;;;;;6287281;28;20305;-56
2022/01/26 13:05:11;;;;;;;10.33;8.80;;;3.80;24.30;;;;;;6287088;28;20233;-54
2022/01/26 13:08:14;;;;;;;10.83;8.67;;;3.80;23.90;;;;;;6288372;28;20237;-55
2022/01/26 13:11:27;;;;;;;13.30;8.67;;;3.50;23.10;;;;;;6288011;28;20236;-56
2022/01/26 13:14:34;;;;;;;13.03;8.40;;;3.40;22.30;;;;;;6287758;28;20312;-59
2022/01/26 13:17:44;;;;;;;13.87;9.17;;;3.40;23.70;;;;;;6287217;28;20325;-56
2022/01/26 13:21:08;;;;;;;12.57;8.23;;;3.40;24.60;;;;;;6278798;28;20234;-56
2022/01/26 13:24:29;;;;;;;12.63;9.50;;;3.70;22.80;;;;;;6285862;28;20221;-57
2022/01/26 13:27:53;;;;;;;13.93;9.30;;;3.30;21.90;;;;;;6287819;28;20500;-56
2022/01/26 13:34:44;;;;;;;13.87;9.43;;;3.20;22.60;;;;;;6285296;28;20256;-56
2022/01/26 13:38:02;;;;;;;14.93;9.17;;;3.50;21.50;;;;;;6282660;28;20640;-57
2022/01/26 13:41:19;;;;;;;16.13;10.20;;;3.20;20.90;;;;;;6281960;28;20359;-55
2022/01/26 13:48:20;;;;;;;18.77;11.23;;;3.30;23.90;;;;;;6285267;28;20337;-57
2022/01/26 13:51:35;;;;;;;21.53;13.03;;;3.40;24.90;;;;;;6281840;28;20233;-56
2022/01/26 13:55:03;;;;;;;23.00;12.47;;;3.40;24.50;;;;;;6286248;28;20315;-55
2022/01/26 14:01:23;;;;;;;28.77;14.50;;;3.00;21.50;;;;;;6278932;28;20720;-56
2022/01/26 14:04:26;;;;;;;30.00;14.67;;;3.30;21.90;;;;;;6286054;28;20620;-60
2022/01/26 14:07:30;;;;;;;21.70;12.90;;;3.10;22.00;;;;;;6284468;28;20232;-58
2022/01/26 14:10:35;;;;;;;23.37;12.43;;;3.10;18.70;;;;;;6281629;28;20286;-56
2022/01/26 14:13:38;;;;;;;26.47;13.00;;;3.20;19.80;;;;;;6284633;28;20985;-56
2022/01/26 14:16:45;;;;;;;25.50;13.47;;;2.90;16.90;;;;;;6282623;28;20315;-56
2022/01/26 14:20:08;;;;;;;24.57;12.37;;;3.10;18.80;;;;;;6284153;28;20999;-55
2022/01/26 14:23:20;;;;;;;29.73;13.70;;;3.20;18.40;;;;;;6283952;28;20321;-56
2022/01/26 14:26:26;;;;;;;28.57;13.53;;;3.20;18.40;;;;;;6283543;28;20225;-56
2022/01/26 14:29:38;;;;;;;24.50;13.03;;;3.10;17.90;;;;;;6283048;28;20294;-57
2022/01/26 14:33:04;;;;;;;24.80;12.53;;;2.80;16.90;;;;;;6284602;28;20257;-55
2022/01/26 15:00:39;;;;;;;33.13;15.87;;;3.00;12.70;;;;;;6204582;28;20869;-55
2022/01/26 15:30:51;;;;;;;38.27;15.87;;;3.00;17.40;;;;;;6283965;28;20229;-56
2022/01/26 15:34:08;;;;;;;36.17;16.30;;;2.70;17.70;;;;;;6277147;28;20237;-55
2022/01/26 15:40:46;;;;;;;38.37;16.27;;;2.40;18.50;;;;;;6278347;28;20317;-57
2022/01/26 15:44:04;;;;;;;35.03;16.63;;;2.50;20.10;;;;;;6275201;28;20718;-57
2022/01/26 15:50:53;;;;;;;41.93;17.73;;;2.80;20.20;;;;;;6273862;28;20320;-57
2022/01/26 15:57:27;;;;;;;39.37;15.97;;;2.60;21.20;;;;;;6279036;28;20376;-55
2022/01/26 16:07:18;;;;;;;40.30;19.17;;;3.00;22.50;;;;;;6277001;28;21282;-58
2022/01/26 16:21:07;;;;;;;49.20;21.00;;;2.80;22.10;;;;;;6228534;28;20227;-56
2022/01/26 16:37:56;;;;;;;58.23;24.50;;;2.70;24.40;;;;;;6280618;28;21191;-56
2022/01/26 17:11:59;;;;;;;75.63;28.47;;;2.60;27.50;;;;;;6286757;28;20307;-55
2022/01/26 17:55:24;;;;;;;97.83;37.73;;;2.70;28.50;;;;;;6285639;28;20270;-56
2022/01/26 18:32:17;;;;;;;96.27;36.57;;;2.40;26.20;;;;;;6272565;28;20691;-56
2022/01/26 18:39:02;;;;;;;102.57;37.50;;;2.90;27.30;;;;;;6282418;28;20234;-57
2022/01/26 18:49:16;;;;;;;102.47;38.17;;;2.90;26.50;;;;;;6282943;28;20283;-56
2022/01/26 18:52:21;;;;;;;98.03;36.93;;;3.10;27.10;;;;;;6286124;28;20317;-55
2022/01/26 18:55:23;;;;;;;95.07;38.23;;;3.00;26.90;;;;;;6284190;28;20689;-55
2022/01/26 18:58:50;;;;;;;92.73;36.53;;;2.90;26.10;;;;;;6270179;28;20241;-58
2022/01/26 19:02:17;;;;;;;98.33;35.93;;;3.20;25.80;;;;;;6262264;28;20661;-57
2022/01/26 19:05:45;;;;;;;85.73;33.87;;;3.00;25.40;;;;;;6273697;28;20639;-56
2022/01/26 19:09:13;;;;;;;95.67;38.73;;;3.30;25.50;;;;;;6285085;28;20721;-57
2022/01/26 19:12:42;;;;;;;102.30;39.03;;;3.10;26.80;;;;;;6278731;28;20237;-57
2022/01/26 19:15:45;;;;;;;103.10;37.53;;;3.40;27.10;;;;;;6278510;28;20795;-56
2022/01/26 19:18:57;;;;;;;102.47;38.10;;;3.40;27.60;;;;;;6278387;28;21788;-55
2022/01/26 19:22:16;;;;;;;97.97;37.93;;;3.10;27.70;;;;;;6278828;28;20230;-56
2022/01/26 19:25:25;;;;;;;92.03;35.97;;;3.30;28.60;;;;;;6279821;28;20323;-56
2022/01/26 19:28:32;;;;;;;98.60;36.43;;;3.30;28.40;;;;;;6283217;28;20706;-55
2022/01/26 19:32:17;;;;;;;89.80;36.67;;;3.30;28.50;;;;;;6284675;28;20421;-56
2022/01/26 19:45:55;;;;;;;87.70;34.73;;;3.20;28.00;;;;;;6281613;28;20228;-56
2022/01/26 19:52:17;;;;;;;80.93;32.83;;;3.30;28.10;;;;;;6278716;28;20613;-56
2022/01/26 19:55:19;;;;;;;82.37;34.70;;;3.10;28.30;;;;;;6280159;28;20230;-55
2022/01/26 19:58:25;;;;;;;83.43;34.40;;;3.00;28.50;;;;;;6272541;28;20324;-56
2022/01/26 20:01:28;;;;;;;81.20;33.17;;;3.50;28.40;;;;;;6266957;28;20358;-56
2022/01/26 20:04:54;;;;;;;82.17;33.77;;;3.40;28.70;;;;;;6278303;28;20689;-57
2022/01/26 20:08:32;;;;;;;88.63;35.47;;;3.10;28.50;;;;;;6281905;28;20229;-57
2022/01/26 20:12:02;;;;;;;81.97;33.83;;;3.20;29.40;;;;;;6279114;28;20831;-56
2022/01/26 20:15:31;;;;;;;84.93;33.23;;;3.50;29.10;;;;;;6277519;28;20240;-60
2022/01/26 20:18:58;;;;;;;73.43;32.73;;;3.20;28.20;;;;;;6276312;28;20324;-56
2022/01/26 20:22:25;;;;;;;73.90;32.53;;;3.00;27.60;;;;;;6270906;28;20320;-55
2022/01/26 20:25:57;;;;;;;78.80;32.80;;;3.60;28.10;;;;;;6277790;28;20317;-56
2022/01/26 20:29:30;;;;;;;72.97;31.70;;;3.60;28.50;;;;;;6282419;28;20281;-57
2022/01/26 20:32:58;;;;;;;75.67;31.67;;;3.30;28.50;;;;;;6273737;28;20661;-55
2022/01/26 20:36:29;;;;;;;76.27;32.20;;;3.60;28.20;;;;;;6275768;28;20240;-58
2022/01/26 20:39:55;;;;;;;71.73;31.17;;;3.30;27.70;;;;;;6275990;28;20246;-55
2022/01/26 20:43:23;;;;;;;79.10;30.63;;;3.30;28.10;;;;;;6278802;28;20237;-58
2022/01/26 20:46:50;;;;;;;66.33;29.50;;;3.40;28.30;;;;;;6283491;28;20749;-57
2022/01/26 20:50:19;;;;;;;72.30;30.33;;;3.60;28.40;;;;;;6283539;28;20659;-56
2022/01/26 20:53:47;;;;;;;69.43;31.60;;;3.60;28.70;;;;;;6281739;28;20709;-58
2022/01/26 20:57:15;;;;;;;68.37;30.27;;;3.50;28.00;;;;;;6283150;28;20233;-56
2022/01/26 21:00:42;;;;;;;62.73;29.17;;;3.40;26.90;;;;;;6278123;28;20502;-55
2022/01/26 21:04:09;;;;;;;62.83;29.23;;;3.40;27.50;;;;;;6277774;28;20429;-55
2022/01/26 21:07:37;;;;;;;68.60;29.80;;;3.70;27.40;;;;;;6284375;28;20233;-55
2022/01/26 21:11:04;;;;;;;66.53;30.67;;;3.50;27.00;;;;;;6271962;28;20233;-59
2022/01/26 21:14:31;;;;;;;61.87;28.30;;;3.40;26.50;;;;;;6288594;28;20241;-56
2022/01/26 21:17:58;;;;;;;63.07;30.07;;;3.70;27.10;;;;;;6287260;28;20279;-56
2022/01/26 21:21:27;;;;;;;56.53;27.77;;;3.60;27.10;;;;;;6288424;28;20395;-57
2022/01/26 21:24:54;;;;;;;63.20;29.50;;;3.50;27.30;;;;;;6289130;28;20238;-56
2022/01/26 21:28:21;;;;;;;59.00;28.77;;;3.60;27.10;;;;;;6267419;28;20246;-56
2022/01/26 21:31:49;;;;;;;59.97;29.67;;;3.70;27.00;;;;;;6264162;28;20629;-56